sensor_id;sensor_type;location;lat;lon;timestamp;P1;durP1;ratioP1;P2;durP2;ratioP2
7997;SDS011;4044;49.814;7.828;2024-01-15T00:01:28;24.20;;;12.97;;
7997;SDS011;4044;49.814;7.828;2024-01-15T00:03:54;23.27;;;13.00;;
7997;SDS011;4044;49.814;7.828;2024-01-15T00:06:19;27.00;;;14.20;;
7997;SDS011;4044;49.814;7.828;2024-01-15T00:08:45;25.47;;;12.83;;
7997;SDS011;4044;49.814;7.828;2024-01-15T00:11:10;23.93;;;12.53;;
7997;SDS011;4044;49.814;7.828;2024-01-15T00:13:36;24.57;;;12.73;;
7997;SDS011;4044;49.814;7.828;2024-01-15T00:16:02;22.40;;;11.10;;
7997;SDS011;4044;49.814;7.828;2024-01-15T00:18:27;19.83;;;11.30;;
7997;SDS011;4044;49.814;7.828;2024-01-15T00:20:53;22.07;;;10.93;;
7997;SDS011;4044;49.814;7.828;2024-01-15T00:23:18;24.33;;;12.73;;
7997;SDS011;4044;49.814;7.828;2024-01-15T00:25:44;24.23;;;13.33;;
7997;SDS011;4044;49.814;7.828;2024-01-15T00:28:09;23.30;;;12.30;;
7997;SDS011;4044;49.814;7.828;2024-01-15T00:30:35;24.20;;;12.57;;
7997;SDS011;4044;49.814;7.828;2024-01-15T00:33:00;24.20;;;12.60;;
7997;SDS011;4044;49.814;7.828;2024-01-15T00:35:26;22.33;;;12.00;;
7997;SDS011;4044;49.814;7.828;2024-01-15T00:37:51;24.73;;;12.47;;
7997;SDS011;4044;49.814;7.828;2024-01-15T00:40:17;26.03;;;12.63;;
7997;SDS011;4044;49.814;7.828;2024-01-15T00:42:42;22.47;;;10.40;;
7997;SDS011;4044;49.814;7.828;2024-01-15T00:45:08;22.20;;;10.67;;
7997;SDS011;4044;49.814;7.828;2024-01-15T00:47:34;20.17;;;11.53;;
7997;SDS011;4044;49.814;7.828;2024-01-15T00:50:00;20.30;;;11.00;;
7997;SDS011;4044;49.814;7.828;2024-01-15T00:52:26;21.87;;;11.17;;
7997;SDS011;4044;49.814;7.828;2024-01-15T00:54:51;19.73;;;10.73;;
7997;SDS011;4044;49.814;7.828;2024-01-15T00:57:17;20.77;;;11.77;;
7997;SDS011;4044;49.814;7.828;2024-01-15T00:59:44;22.67;;;11.93;;
7997;SDS011;4044;49.814;7.828;2024-01-15T01:02:09;21.97;;;11.47;;
7997;SDS011;4044;49.814;7.828;2024-01-15T01:04:35;20.83;;;11.03;;
7997;SDS011;4044;49.814;7.828;2024-01-15T01:07:00;22.03;;;11.93;;
7997;SDS011;4044;49.814;7.828;2024-01-15T01:09:26;23.00;;;11.60;;
7997;SDS011;4044;49.814;7.828;2024-01-15T01:11:54;22.13;;;11.60;;
7997;SDS011;4044;49.814;7.828;2024-01-15T01:14:19;17.43;;;9.83;;
7997;SDS011;4044;49.814;7.828;2024-01-15T01:16:45;23.90;;;11.70;;
7997;SDS011;4044;49.814;7.828;2024-01-15T01:19:10;21.63;;;11.10;;
7997;SDS011;4044;49.814;7.828;2024-01-15T01:21:36;19.17;;;9.97;;
7997;SDS011;4044;49.814;7.828;2024-01-15T01:24:01;20.80;;;11.10;;
7997;SDS011;4044;49.814;7.828;2024-01-15T01:26:27;18.07;;;10.47;;
7997;SDS011;4044;49.814;7.828;2024-01-15T01:28:52;19.63;;;10.43;;
7997;SDS011;4044;49.814;7.828;2024-01-15T01:31:18;19.33;;;9.87;;
7997;SDS011;4044;49.814;7.828;2024-01-15T01:33:43;18.17;;;8.83;;
7997;SDS011;4044;49.814;7.828;2024-01-15T01:36:09;19.77;;;9.60;;
7997;SDS011;4044;49.814;7.828;2024-01-15T01:38:35;20.53;;;10.50;;
7997;SDS011;4044;49.814;7.828;2024-01-15T01:41:01;21.00;;;10.70;;
7997;SDS011;4044;49.814;7.828;2024-01-15T01:43:26;17.93;;;8.97;;
7997;SDS011;4044;49.814;7.828;2024-01-15T01:45:52;17.63;;;9.70;;
7997;SDS011;4044;49.814;7.828;2024-01-15T01:48:20;15.83;;;9.40;;
7997;SDS011;4044;49.814;7.828;2024-01-15T01:50:46;19.07;;;9.83;;
7997;SDS011;4044;49.814;7.828;2024-01-15T01:53:12;18.80;;;9.57;;
7997;SDS011;4044;49.814;7.828;2024-01-15T01:55:37;13.80;;;8.37;;
7997;SDS011;4044;49.814;7.828;2024-01-15T01:58:04;16.03;;;9.20;;
7997;SDS011;4044;49.814;7.828;2024-01-15T02:00:30;19.10;;;9.57;;
7997;SDS011;4044;49.814;7.828;2024-01-15T02:02:56;16.70;;;9.60;;
7997;SDS011;4044;49.814;7.828;2024-01-15T02:05:22;14.30;;;7.73;;
7997;SDS011;4044;49.814;7.828;2024-01-15T02:07:48;17.67;;;9.90;;
7997;SDS011;4044;49.814;7.828;2024-01-15T02:10:13;17.73;;;9.57;;
7997;SDS011;4044;49.814;7.828;2024-01-15T02:12:39;16.63;;;9.20;;
7997;SDS011;4044;49.814;7.828;2024-01-15T02:15:05;16.20;;;9.63;;
7997;SDS011;4044;49.814;7.828;2024-01-15T02:17:31;18.57;;;9.57;;
7997;SDS011;4044;49.814;7.828;2024-01-15T02:19:56;17.53;;;9.27;;
7997;SDS011;4044;49.814;7.828;2024-01-15T02:22:22;17.33;;;9.43;;
7997;SDS011;4044;49.814;7.828;2024-01-15T02:24:47;17.90;;;9.57;;
7997;SDS011;4044;49.814;7.828;2024-01-15T02:27:13;17.23;;;9.80;;
7997;SDS011;4044;49.814;7.828;2024-01-15T02:29:39;19.73;;;9.90;;
7997;SDS011;4044;49.814;7.828;2024-01-15T02:32:05;16.83;;;9.17;;
7997;SDS011;4044;49.814;7.828;2024-01-15T02:34:32;17.87;;;9.20;;
7997;SDS011;4044;49.814;7.828;2024-01-15T02:36:58;18.23;;;10.23;;
7997;SDS011;4044;49.814;7.828;2024-01-15T02:39:23;18.83;;;9.37;;
7997;SDS011;4044;49.814;7.828;2024-01-15T02:41:49;19.30;;;9.47;;
7997;SDS011;4044;49.814;7.828;2024-01-15T02:44:14;17.03;;;9.33;;
7997;SDS011;4044;49.814;7.828;2024-01-15T02:46:40;16.60;;;9.80;;
7997;SDS011;4044;49.814;7.828;2024-01-15T02:49:05;19.70;;;9.50;;
7997;SDS011;4044;49.814;7.828;2024-01-15T02:51:31;17.30;;;10.00;;
7997;SDS011;4044;49.814;7.828;2024-01-15T02:53:56;19.87;;;10.23;;
7997;SDS011;4044;49.814;7.828;2024-01-15T02:56:22;20.07;;;10.33;;
7997;SDS011;4044;49.814;7.828;2024-01-15T02:58:47;23.10;;;10.30;;
7997;SDS011;4044;49.814;7.828;2024-01-15T03:01:13;20.43;;;10.67;;
7997;SDS011;4044;49.814;7.828;2024-01-15T03:03:39;20.20;;;10.77;;
7997;SDS011;4044;49.814;7.828;2024-01-15T03:06:05;21.33;;;11.17;;
7997;SDS011;4044;49.814;7.828;2024-01-15T03:08:31;17.20;;;9.50;;
7997;SDS011;4044;49.814;7.828;2024-01-15T03:10:56;20.63;;;11.40;;
7997;SDS011;4044;49.814;7.828;2024-01-15T03:13:22;18.73;;;9.73;;
7997;SDS011;4044;49.814;7.828;2024-01-15T03:15:47;20.13;;;10.37;;
7997;SDS011;4044;49.814;7.828;2024-01-15T03:18:13;16.60;;;9.50;;
7997;SDS011;4044;49.814;7.828;2024-01-15T03:20:38;20.23;;;9.57;;
7997;SDS011;4044;49.814;7.828;2024-01-15T03:23:04;18.20;;;8.63;;
7997;SDS011;4044;49.814;7.828;2024-01-15T03:25:29;19.10;;;10.20;;
7997;SDS011;4044;49.814;7.828;2024-01-15T03:27:55;18.07;;;9.87;;
7997;SDS011;4044;49.814;7.828;2024-01-15T03:30:20;16.00;;;9.53;;
7997;SDS011;4044;49.814;7.828;2024-01-15T03:32:46;17.27;;;9.17;;
7997;SDS011;4044;49.814;7.828;2024-01-15T03:35:12;19.00;;;10.10;;
7997;SDS011;4044;49.814;7.828;2024-01-15T03:37:38;18.10;;;9.50;;
7997;SDS011;4044;49.814;7.828;2024-01-15T03:40:03;17.37;;;10.10;;
7997;SDS011;4044;49.814;7.828;2024-01-15T03:42:29;17.10;;;9.37;;
7997;SDS011;4044;49.814;7.828;2024-01-15T03:44:55;15.40;;;8.53;;
7997;SDS011;4044;49.814;7.828;2024-01-15T03:47:20;18.43;;;9.63;;
7997;SDS011;4044;49.814;7.828;2024-01-15T03:49:46;19.27;;;10.03;;
7997;SDS011;4044;49.814;7.828;2024-01-15T03:52:11;17.80;;;9.53;;
7997;SDS011;4044;49.814;7.828;2024-01-15T03:54:37;18.47;;;9.63;;
7997;SDS011;4044;49.814;7.828;2024-01-15T03:57:02;16.33;;;8.90;;
7997;SDS011;4044;49.814;7.828;2024-01-15T03:59:28;17.70;;;10.37;;
7997;SDS011;4044;49.814;7.828;2024-01-15T04:01:54;18.40;;;9.13;;
7997;SDS011;4044;49.814;7.828;2024-01-15T04:04:19;17.10;;;9.53;;
7997;SDS011;4044;49.814;7.828;2024-01-15T04:06:45;16.53;;;9.57;;
7997;SDS011;4044;49.814;7.828;2024-01-15T04:09:12;18.80;;;9.57;;
7997;SDS011;4044;49.814;7.828;2024-01-15T04:11:38;19.87;;;9.83;;
7997;SDS011;4044;49.814;7.828;2024-01-15T04:14:04;17.87;;;9.13;;
7997;SDS011;4044;49.814;7.828;2024-01-15T04:16:29;17.27;;;9.53;;
7997;SDS011;4044;49.814;7.828;2024-01-15T04:18:54;17.80;;;9.37;;
7997;SDS011;4044;49.814;7.828;2024-01-15T04:21:20;19.20;;;9.53;;
7997;SDS011;4044;49.814;7.828;2024-01-15T04:23:45;18.00;;;9.50;;
7997;SDS011;4044;49.814;7.828;2024-01-15T04:26:11;15.80;;;8.50;;
7997;SDS011;4044;49.814;7.828;2024-01-15T04:28:37;15.67;;;9.03;;
7997;SDS011;4044;49.814;7.828;2024-01-15T04:31:02;17.30;;;8.40;;
7997;SDS011;4044;49.814;7.828;2024-01-15T04:33:28;16.20;;;8.47;;
7997;SDS011;4044;49.814;7.828;2024-01-15T04:35:53;17.33;;;9.93;;
7997;SDS011;4044;49.814;7.828;2024-01-15T04:38:19;17.03;;;9.20;;
7997;SDS011;4044;49.814;7.828;2024-01-15T04:40:44;18.10;;;9.57;;
7997;SDS011;4044;49.814;7.828;2024-01-15T04:43:10;17.10;;;9.00;;
7997;SDS011;4044;49.814;7.828;2024-01-15T04:45:35;20.80;;;9.53;;
7997;SDS011;4044;49.814;7.828;2024-01-15T04:48:01;18.73;;;9.93;;
7997;SDS011;4044;49.814;7.828;2024-01-15T04:50:28;16.90;;;9.37;;
7997;SDS011;4044;49.814;7.828;2024-01-15T04:52:53;16.20;;;9.40;;
7997;SDS011;4044;49.814;7.828;2024-01-15T04:55:19;15.97;;;9.33;;
7997;SDS011;4044;49.814;7.828;2024-01-15T04:57:44;18.50;;;10.17;;
7997;SDS011;4044;49.814;7.828;2024-01-15T05:00:10;16.10;;;9.43;;
7997;SDS011;4044;49.814;7.828;2024-01-15T05:02:37;17.03;;;9.43;;
7997;SDS011;4044;49.814;7.828;2024-01-15T05:05:02;17.77;;;9.07;;
7997;SDS011;4044;49.814;7.828;2024-01-15T05:07:28;15.47;;;8.03;;
7997;SDS011;4044;49.814;7.828;2024-01-15T05:09:54;16.17;;;8.80;;
7997;SDS011;4044;49.814;7.828;2024-01-15T05:12:19;16.53;;;8.23;;
7997;SDS011;4044;49.814;7.828;2024-01-15T05:14:45;20.60;;;9.50;;
7997;SDS011;4044;49.814;7.828;2024-01-15T05:17:10;17.17;;;9.10;;
7997;SDS011;4044;49.814;7.828;2024-01-15T05:19:36;18.40;;;10.27;;
7997;SDS011;4044;49.814;7.828;2024-01-15T05:22:01;17.20;;;9.63;;
7997;SDS011;4044;49.814;7.828;2024-01-15T05:24:27;17.40;;;9.43;;
7997;SDS011;4044;49.814;7.828;2024-01-15T05:26:52;16.00;;;10.00;;
7997;SDS011;4044;49.814;7.828;2024-01-15T05:29:18;16.33;;;8.63;;
7997;SDS011;4044;49.814;7.828;2024-01-15T05:31:43;16.37;;;9.07;;
7997;SDS011;4044;49.814;7.828;2024-01-15T05:34:09;15.80;;;9.53;;
7997;SDS011;4044;49.814;7.828;2024-01-15T05:36:34;16.07;;;9.97;;
7997;SDS011;4044;49.814;7.828;2024-01-15T05:39:00;19.30;;;10.27;;
7997;SDS011;4044;49.814;7.828;2024-01-15T05:41:25;16.70;;;9.93;;
7997;SDS011;4044;49.814;7.828;2024-01-15T05:43:51;16.87;;;9.77;;
7997;SDS011;4044;49.814;7.828;2024-01-15T05:46:17;18.17;;;9.40;;
7997;SDS011;4044;49.814;7.828;2024-01-15T05:48:42;17.80;;;11.13;;
7997;SDS011;4044;49.814;7.828;2024-01-15T05:51:08;19.17;;;10.30;;
7997;SDS011;4044;49.814;7.828;2024-01-15T05:53:33;20.57;;;10.77;;
7997;SDS011;4044;49.814;7.828;2024-01-15T05:55:59;19.00;;;11.00;;
7997;SDS011;4044;49.814;7.828;2024-01-15T05:58:26;21.00;;;11.70;;
7997;SDS011;4044;49.814;7.828;2024-01-15T06:00:51;21.77;;;11.40;;
7997;SDS011;4044;49.814;7.828;2024-01-15T06:03:17;20.77;;;11.17;;
7997;SDS011;4044;49.814;7.828;2024-01-15T06:05:42;17.20;;;9.97;;
7997;SDS011;4044;49.814;7.828;2024-01-15T06:08:08;19.90;;;10.70;;
7997;SDS011;4044;49.814;7.828;2024-01-15T06:10:34;23.27;;;11.03;;
7997;SDS011;4044;49.814;7.828;2024-01-15T06:13:00;21.17;;;11.63;;
7997;SDS011;4044;49.814;7.828;2024-01-15T06:15:26;19.27;;;11.13;;
7997;SDS011;4044;49.814;7.828;2024-01-15T06:17:51;21.37;;;11.33;;
7997;SDS011;4044;49.814;7.828;2024-01-15T06:20:17;20.00;;;11.80;;
7997;SDS011;4044;49.814;7.828;2024-01-15T06:22:42;20.40;;;11.90;;
7997;SDS011;4044;49.814;7.828;2024-01-15T06:25:08;22.30;;;11.37;;
7997;SDS011;4044;49.814;7.828;2024-01-15T06:27:34;20.77;;;10.30;;
7997;SDS011;4044;49.814;7.828;2024-01-15T06:29:59;17.67;;;10.63;;
7997;SDS011;4044;49.814;7.828;2024-01-15T06:32:25;21.23;;;11.97;;
7997;SDS011;4044;49.814;7.828;2024-01-15T06:34:51;18.57;;;10.67;;
7997;SDS011;4044;49.814;7.828;2024-01-15T06:37:16;18.17;;;10.20;;
7997;SDS011;4044;49.814;7.828;2024-01-15T06:39:43;22.13;;;11.60;;
7997;SDS011;4044;49.814;7.828;2024-01-15T06:42:09;18.97;;;11.10;;
7997;SDS011;4044;49.814;7.828;2024-01-15T06:44:34;17.13;;;9.90;;
7997;SDS011;4044;49.814;7.828;2024-01-15T06:47:00;22.23;;;11.30;;
7997;SDS011;4044;49.814;7.828;2024-01-15T06:49:28;19.67;;;11.20;;
7997;SDS011;4044;49.814;7.828;2024-01-15T06:51:54;18.80;;;10.80;;
7997;SDS011;4044;49.814;7.828;2024-01-15T06:54:20;17.23;;;10.57;;
7997;SDS011;4044;49.814;7.828;2024-01-15T06:56:45;20.23;;;11.23;;
7997;SDS011;4044;49.814;7.828;2024-01-15T06:59:11;18.23;;;10.33;;
7997;SDS011;4044;49.814;7.828;2024-01-15T07:01:36;18.50;;;11.27;;
7997;SDS011;4044;49.814;7.828;2024-01-15T07:04:02;19.80;;;10.57;;
7997;SDS011;4044;49.814;7.828;2024-01-15T07:06:28;17.63;;;10.40;;
7997;SDS011;4044;49.814;7.828;2024-01-15T07:08:55;20.23;;;10.33;;
7997;SDS011;4044;49.814;7.828;2024-01-15T07:11:21;18.43;;;10.10;;
7997;SDS011;4044;49.814;7.828;2024-01-15T07:13:46;17.90;;;9.77;;
7997;SDS011;4044;49.814;7.828;2024-01-15T07:16:12;16.97;;;9.43;;
7997;SDS011;4044;49.814;7.828;2024-01-15T07:18:37;17.80;;;9.13;;
7997;SDS011;4044;49.814;7.828;2024-01-15T07:21:03;15.53;;;9.70;;
7997;SDS011;4044;49.814;7.828;2024-01-15T07:23:30;15.60;;;9.73;;
7997;SDS011;4044;49.814;7.828;2024-01-15T07:25:56;15.17;;;9.33;;
7997;SDS011;4044;49.814;7.828;2024-01-15T07:28:22;18.20;;;9.60;;
7997;SDS011;4044;49.814;7.828;2024-01-15T07:30:47;17.20;;;10.53;;
7997;SDS011;4044;49.814;7.828;2024-01-15T07:33:13;17.43;;;9.70;;
7997;SDS011;4044;49.814;7.828;2024-01-15T07:35:38;15.33;;;9.87;;
7997;SDS011;4044;49.814;7.828;2024-01-15T07:38:04;17.63;;;9.93;;
7997;SDS011;4044;49.814;7.828;2024-01-15T07:40:29;14.93;;;9.47;;
7997;SDS011;4044;49.814;7.828;2024-01-15T07:42:55;16.87;;;10.87;;
7997;SDS011;4044;49.814;7.828;2024-01-15T07:45:20;17.27;;;10.17;;
7997;SDS011;4044;49.814;7.828;2024-01-15T07:47:46;17.80;;;10.37;;
7997;SDS011;4044;49.814;7.828;2024-01-15T07:50:11;17.33;;;10.10;;
7997;SDS011;4044;49.814;7.828;2024-01-15T07:52:37;18.07;;;10.10;;
7997;SDS011;4044;49.814;7.828;2024-01-15T07:55:02;14.87;;;9.30;;
7997;SDS011;4044;49.814;7.828;2024-01-15T07:57:31;17.77;;;10.27;;
7997;SDS011;4044;49.814;7.828;2024-01-15T07:59:56;15.03;;;9.30;;
7997;SDS011;4044;49.814;7.828;2024-01-15T08:02:22;15.63;;;9.20;;
7997;SDS011;4044;49.814;7.828;2024-01-15T08:04:47;15.13;;;9.17;;
7997;SDS011;4044;49.814;7.828;2024-01-15T08:07:13;13.00;;;8.00;;
7997;SDS011;4044;49.814;7.828;2024-01-15T08:09:38;16.37;;;9.87;;
7997;SDS011;4044;49.814;7.828;2024-01-15T08:12:04;13.67;;;9.20;;
7997;SDS011;4044;49.814;7.828;2024-01-15T08:14:31;17.47;;;9.27;;
7997;SDS011;4044;49.814;7.828;2024-01-15T08:16:56;14.13;;;9.17;;
7997;SDS011;4044;49.814;7.828;2024-01-15T08:19:22;14.63;;;9.83;;
7997;SDS011;4044;49.814;7.828;2024-01-15T08:21:47;15.33;;;8.50;;
7997;SDS011;4044;49.814;7.828;2024-01-15T08:24:14;14.93;;;8.93;;
7997;SDS011;4044;49.814;7.828;2024-01-15T08:26:40;14.47;;;9.07;;
7997;SDS011;4044;49.814;7.828;2024-01-15T08:29:05;13.30;;;9.23;;
7997;SDS011;4044;49.814;7.828;2024-01-15T08:31:31;14.37;;;9.33;;
7997;SDS011;4044;49.814;7.828;2024-01-15T08:33:56;12.43;;;7.90;;
7997;SDS011;4044;49.814;7.828;2024-01-15T08:36:22;16.90;;;10.17;;
7997;SDS011;4044;49.814;7.828;2024-01-15T08:38:49;14.13;;;8.90;;
7997;SDS011;4044;49.814;7.828;2024-01-15T08:41:15;15.50;;;9.20;;
7997;SDS011;4044;49.814;7.828;2024-01-15T08:43:40;15.17;;;9.23;;
7997;SDS011;4044;49.814;7.828;2024-01-15T08:46:06;13.77;;;8.03;;
7997;SDS011;4044;49.814;7.828;2024-01-15T08:48:32;13.93;;;8.67;;
7997;SDS011;4044;49.814;7.828;2024-01-15T08:50:57;14.77;;;9.47;;
7997;SDS011;4044;49.814;7.828;2024-01-15T08:53:23;13.93;;;8.87;;
7997;SDS011;4044;49.814;7.828;2024-01-15T08:55:49;15.67;;;9.30;;
7997;SDS011;4044;49.814;7.828;2024-01-15T08:58:15;17.33;;;9.33;;
7997;SDS011;4044;49.814;7.828;2024-01-15T09:00:41;15.83;;;9.57;;
7997;SDS011;4044;49.814;7.828;2024-01-15T09:03:07;13.97;;;9.40;;
7997;SDS011;4044;49.814;7.828;2024-01-15T09:05:33;14.50;;;9.27;;
7997;SDS011;4044;49.814;7.828;2024-01-15T09:07:59;15.03;;;9.67;;
7997;SDS011;4044;49.814;7.828;2024-01-15T09:10:24;14.80;;;9.73;;
7997;SDS011;4044;49.814;7.828;2024-01-15T09:12:50;14.87;;;9.73;;
7997;SDS011;4044;49.814;7.828;2024-01-15T09:15:16;16.40;;;10.13;;
7997;SDS011;4044;49.814;7.828;2024-01-15T09:17:41;14.33;;;9.53;;
7997;SDS011;4044;49.814;7.828;2024-01-15T09:20:07;14.33;;;9.13;;
7997;SDS011;4044;49.814;7.828;2024-01-15T09:22:34;14.70;;;9.10;;
7997;SDS011;4044;49.814;7.828;2024-01-15T09:25:00;14.43;;;9.27;;
7997;SDS011;4044;49.814;7.828;2024-01-15T09:27:26;15.67;;;9.50;;
7997;SDS011;4044;49.814;7.828;2024-01-15T09:29:52;13.97;;;9.47;;
7997;SDS011;4044;49.814;7.828;2024-01-15T09:32:18;12.27;;;8.40;;
7997;SDS011;4044;49.814;7.828;2024-01-15T09:34:43;16.17;;;10.20;;
7997;SDS011;4044;49.814;7.828;2024-01-15T09:37:11;16.33;;;10.43;;
7997;SDS011;4044;49.814;7.828;2024-01-15T09:39:36;15.13;;;9.97;;
7997;SDS011;4044;49.814;7.828;2024-01-15T09:42:02;15.87;;;10.23;;
7997;SDS011;4044;49.814;7.828;2024-01-15T09:44:28;14.97;;;10.00;;
7997;SDS011;4044;49.814;7.828;2024-01-15T09:46:55;14.67;;;10.03;;
7997;SDS011;4044;49.814;7.828;2024-01-15T09:49:20;13.40;;;9.20;;
7997;SDS011;4044;49.814;7.828;2024-01-15T09:51:46;15.43;;;9.60;;
7997;SDS011;4044;49.814;7.828;2024-01-15T09:54:12;15.87;;;10.13;;
7997;SDS011;4044;49.814;7.828;2024-01-15T09:56:41;13.87;;;9.57;;
7997;SDS011;4044;49.814;7.828;2024-01-15T09:59:14;13.60;;;9.30;;
7997;SDS011;4044;49.814;7.828;2024-01-15T10:01:41;13.43;;;7.97;;
7997;SDS011;4044;49.814;7.828;2024-01-15T10:04:10;13.83;;;9.60;;
7997;SDS011;4044;49.814;7.828;2024-01-15T10:06:37;13.60;;;8.43;;
7997;SDS011;4044;49.814;7.828;2024-01-15T10:09:04;12.90;;;8.27;;
7997;SDS011;4044;49.814;7.828;2024-01-15T10:11:30;13.87;;;9.03;;
7997;SDS011;4044;49.814;7.828;2024-01-15T10:13:56;11.67;;;8.20;;
7997;SDS011;4044;49.814;7.828;2024-01-15T10:16:22;13.40;;;8.70;;
7997;SDS011;4044;49.814;7.828;2024-01-15T10:18:48;12.83;;;8.40;;
7997;SDS011;4044;49.814;7.828;2024-01-15T10:21:14;12.93;;;8.33;;
7997;SDS011;4044;49.814;7.828;2024-01-15T10:23:41;13.57;;;8.37;;
7997;SDS011;4044;49.814;7.828;2024-01-15T10:26:06;12.90;;;8.40;;
7997;SDS011;4044;49.814;7.828;2024-01-15T10:28:32;11.57;;;7.70;;
7997;SDS011;4044;49.814;7.828;2024-01-15T10:30:58;12.07;;;8.70;;
7997;SDS011;4044;49.814;7.828;2024-01-15T10:33:25;12.83;;;9.10;;
7997;SDS011;4044;49.814;7.828;2024-01-15T10:35:54;14.07;;;8.87;;
7997;SDS011;4044;49.814;7.828;2024-01-15T10:38:24;13.23;;;9.20;;
7997;SDS011;4044;49.814;7.828;2024-01-15T10:40:51;12.57;;;8.10;;
7997;SDS011;4044;49.814;7.828;2024-01-15T10:43:20;11.70;;;7.80;;
7997;SDS011;4044;49.814;7.828;2024-01-15T10:45:46;12.00;;;8.43;;
7997;SDS011;4044;49.814;7.828;2024-01-15T10:48:14;12.13;;;8.10;;
7997;SDS011;4044;49.814;7.828;2024-01-15T10:50:41;12.40;;;7.87;;
7997;SDS011;4044;49.814;7.828;2024-01-15T10:53:07;13.67;;;8.43;;
7997;SDS011;4044;49.814;7.828;2024-01-15T10:55:35;11.73;;;8.20;;
7997;SDS011;4044;49.814;7.828;2024-01-15T10:58:02;11.43;;;7.53;;
7997;SDS011;4044;49.814;7.828;2024-01-15T11:00:28;11.07;;;7.50;;
7997;SDS011;4044;49.814;7.828;2024-01-15T11:02:54;11.50;;;7.97;;
7997;SDS011;4044;49.814;7.828;2024-01-15T11:05:21;12.53;;;8.33;;
7997;SDS011;4044;49.814;7.828;2024-01-15T11:07:50;11.50;;;7.60;;
7997;SDS011;4044;49.814;7.828;2024-01-15T11:13:05;11.67;;;8.17;;
7997;SDS011;4044;49.814;7.828;2024-01-15T11:15:33;10.67;;;7.00;;
7997;SDS011;4044;49.814;7.828;2024-01-15T11:18:22;11.77;;;7.27;;
7997;SDS011;4044;49.814;7.828;2024-01-15T11:23:44;10.27;;;6.60;;
7997;SDS011;4044;49.814;7.828;2024-01-15T11:26:33;8.93;;;6.77;;
7997;SDS011;4044;49.814;7.828;2024-01-15T11:29:28;9.10;;;6.53;;
7997;SDS011;4044;49.814;7.828;2024-01-15T11:32:03;7.63;;;5.27;;
7997;SDS011;4044;49.814;7.828;2024-01-15T11:37:17;9.30;;;6.87;;
7997;SDS011;4044;49.814;7.828;2024-01-15T11:39:44;8.47;;;6.57;;
7997;SDS011;4044;49.814;7.828;2024-01-15T11:42:10;9.50;;;6.97;;
7997;SDS011;4044;49.814;7.828;2024-01-15T11:44:37;10.20;;;6.93;;
7997;SDS011;4044;49.814;7.828;2024-01-15T11:47:04;10.03;;;6.93;;
7997;SDS011;4044;49.814;7.828;2024-01-15T11:52:36;10.50;;;6.63;;
7997;SDS011;4044;49.814;7.828;2024-01-15T11:55:07;6.90;;;5.93;;
7997;SDS011;4044;49.814;7.828;2024-01-15T11:57:51;8.27;;;6.37;;
7997;SDS011;4044;49.814;7.828;2024-01-15T12:00:19;9.07;;;5.70;;
7997;SDS011;4044;49.814;7.828;2024-01-15T12:02:46;8.53;;;6.47;;
7997;SDS011;4044;49.814;7.828;2024-01-15T12:05:13;8.83;;;6.20;;
7997;SDS011;4044;49.814;7.828;2024-01-15T12:07:43;9.53;;;6.37;;
7997;SDS011;4044;49.814;7.828;2024-01-15T12:10:10;8.13;;;5.97;;
7997;SDS011;4044;49.814;7.828;2024-01-15T12:12:39;9.00;;;6.10;;
7997;SDS011;4044;49.814;7.828;2024-01-15T12:15:22;9.63;;;6.53;;
7997;SDS011;4044;49.814;7.828;2024-01-15T12:17:48;10.60;;;6.17;;
7997;SDS011;4044;49.814;7.828;2024-01-15T12:20:14;8.07;;;6.17;;
7997;SDS011;4044;49.814;7.828;2024-01-15T12:22:41;10.00;;;6.10;;
7997;SDS011;4044;49.814;7.828;2024-01-15T12:25:06;9.37;;;6.70;;
7997;SDS011;4044;49.814;7.828;2024-01-15T12:27:32;6.93;;;5.53;;
7997;SDS011;4044;49.814;7.828;2024-01-15T12:29:58;8.53;;;5.90;;
7997;SDS011;4044;49.814;7.828;2024-01-15T12:32:24;9.13;;;6.00;;
7997;SDS011;4044;49.814;7.828;2024-01-15T12:34:50;7.40;;;5.83;;
7997;SDS011;4044;49.814;7.828;2024-01-15T12:37:18;8.20;;;6.40;;
7997;SDS011;4044;49.814;7.828;2024-01-15T12:39:44;8.33;;;5.57;;
7997;SDS011;4044;49.814;7.828;2024-01-15T12:42:10;7.87;;;6.10;;
7997;SDS011;4044;49.814;7.828;2024-01-15T12:44:35;8.03;;;6.20;;
7997;SDS011;4044;49.814;7.828;2024-01-15T12:47:03;7.90;;;5.87;;
7997;SDS011;4044;49.814;7.828;2024-01-15T12:49:29;8.57;;;5.77;;
7997;SDS011;4044;49.814;7.828;2024-01-15T12:51:58;8.20;;;5.30;;
7997;SDS011;4044;49.814;7.828;2024-01-15T12:54:24;7.57;;;5.27;;
7997;SDS011;4044;49.814;7.828;2024-01-15T12:56:50;5.87;;;5.10;;
7997;SDS011;4044;49.814;7.828;2024-01-15T12:59:16;7.13;;;5.30;;
7997;SDS011;4044;49.814;7.828;2024-01-15T13:01:42;7.30;;;5.10;;
7997;SDS011;4044;49.814;7.828;2024-01-15T13:04:09;5.20;;;4.70;;
7997;SDS011;4044;49.814;7.828;2024-01-15T13:06:35;5.87;;;4.87;;
7997;SDS011;4044;49.814;7.828;2024-01-15T13:09:01;6.23;;;4.63;;
7997;SDS011;4044;49.814;7.828;2024-01-15T13:11:30;6.23;;;5.00;;
7997;SDS011;4044;49.814;7.828;2024-01-15T13:13:56;7.57;;;5.00;;
7997;SDS011;4044;49.814;7.828;2024-01-15T13:16:22;5.67;;;4.80;;
7997;SDS011;4044;49.814;7.828;2024-01-15T13:18:47;5.37;;;4.37;;
7997;SDS011;4044;49.814;7.828;2024-01-15T13:21:14;6.03;;;4.97;;
7997;SDS011;4044;49.814;7.828;2024-01-15T13:23:40;6.33;;;4.50;;
7997;SDS011;4044;49.814;7.828;2024-01-15T13:26:06;6.40;;;4.60;;
7997;SDS011;4044;49.814;7.828;2024-01-15T13:28:32;4.80;;;3.70;;
7997;SDS011;4044;49.814;7.828;2024-01-15T13:30:57;5.10;;;3.73;;
7997;SDS011;4044;49.814;7.828;2024-01-15T13:33:23;5.53;;;3.57;;
7997;SDS011;4044;49.814;7.828;2024-01-15T13:35:48;4.83;;;3.60;;
7997;SDS011;4044;49.814;7.828;2024-01-15T13:38:15;4.43;;;3.83;;
7997;SDS011;4044;49.814;7.828;2024-01-15T13:40:41;5.73;;;3.70;;
7997;SDS011;4044;49.814;7.828;2024-01-15T13:43:06;5.23;;;3.60;;
7997;SDS011;4044;49.814;7.828;2024-01-15T13:45:33;6.03;;;3.57;;
7997;SDS011;4044;49.814;7.828;2024-01-15T13:48:00;5.87;;;3.83;;
7997;SDS011;4044;49.814;7.828;2024-01-15T13:50:26;4.23;;;3.40;;
7997;SDS011;4044;49.814;7.828;2024-01-15T13:52:52;6.10;;;4.03;;
7997;SDS011;4044;49.814;7.828;2024-01-15T13:55:18;5.67;;;3.90;;
7997;SDS011;4044;49.814;7.828;2024-01-15T13:57:43;5.37;;;3.60;;
7997;SDS011;4044;49.814;7.828;2024-01-15T14:00:09;5.37;;;3.90;;
7997;SDS011;4044;49.814;7.828;2024-01-15T14:02:37;6.70;;;4.17;;
7997;SDS011;4044;49.814;7.828;2024-01-15T14:05:02;5.60;;;3.67;;
7997;SDS011;4044;49.814;7.828;2024-01-15T14:07:28;5.93;;;4.07;;
7997;SDS011;4044;49.814;7.828;2024-01-15T14:09:54;5.73;;;4.30;;
7997;SDS011;4044;49.814;7.828;2024-01-15T14:12:19;5.37;;;3.70;;
7997;SDS011;4044;49.814;7.828;2024-01-15T14:14:45;4.57;;;3.63;;
7997;SDS011;4044;49.814;7.828;2024-01-15T14:17:10;6.53;;;3.93;;
7997;SDS011;4044;49.814;7.828;2024-01-15T14:19:36;7.23;;;3.90;;
7997;SDS011;4044;49.814;7.828;2024-01-15T14:22:01;12.03;;;4.10;;
7997;SDS011;4044;49.814;7.828;2024-01-15T14:24:28;4.90;;;3.80;;
7997;SDS011;4044;49.814;7.828;2024-01-15T14:26:53;6.27;;;3.77;;
7997;SDS011;4044;49.814;7.828;2024-01-15T14:29:19;4.50;;;3.60;;
7997;SDS011;4044;49.814;7.828;2024-01-15T14:31:47;6.27;;;3.97;;
7997;SDS011;4044;49.814;7.828;2024-01-15T14:34:13;5.40;;;3.53;;
7997;SDS011;4044;49.814;7.828;2024-01-15T14:36:38;6.83;;;4.30;;
7997;SDS011;4044;49.814;7.828;2024-01-15T14:39:04;5.93;;;3.80;;
7997;SDS011;4044;49.814;7.828;2024-01-15T14:41:29;5.37;;;3.60;;
7997;SDS011;4044;49.814;7.828;2024-01-15T14:43:55;4.67;;;3.50;;
7997;SDS011;4044;49.814;7.828;2024-01-15T14:46:22;6.17;;;3.83;;
7997;SDS011;4044;49.814;7.828;2024-01-15T14:48:47;4.70;;;3.73;;
7997;SDS011;4044;49.814;7.828;2024-01-15T14:51:13;6.17;;;4.53;;
7997;SDS011;4044;49.814;7.828;2024-01-15T14:53:39;5.80;;;3.47;;
7997;SDS011;4044;49.814;7.828;2024-01-15T14:56:04;6.30;;;3.27;;
7997;SDS011;4044;49.814;7.828;2024-01-15T14:58:30;6.93;;;3.23;;
7997;SDS011;4044;49.814;7.828;2024-01-15T15:00:56;5.00;;;3.23;;
7997;SDS011;4044;49.814;7.828;2024-01-15T15:03:23;5.10;;;3.33;;
7997;SDS011;4044;49.814;7.828;2024-01-15T15:05:49;5.33;;;3.30;;